Terminal Aerodrome Forecast
Issued by NWS

Home | Current Version | Previous Version | Text Only | Print | Product List | Glossary Off
Versions: 1 2 3 4 5 6 7 8 9 10 11 12 13 14

845
FTUS43 KTOP 011723
TAFFOE
TAF
KFOE 011723Z 0118/0218 33012KT P6SM SCT020 BKN035
      TEMPO 0120/0124 SCT020 BKN025
     FM020000 35007KT P6SM SCT015 BKN035=

USA.gov is the U.S. government's official web portal to all federal, state and local government web resources and services.